createdAt,value
2023-02-13T00:01:17.526Z,12.55
2023-02-13T00:03:45.350Z,11.35
2023-02-13T00:06:23.245Z,11.73
2023-02-13T00:08:51.372Z,12.30
2023-02-13T00:11:20.606Z,11.18
2023-02-13T00:13:48.440Z,11.35
2023-02-13T00:16:16.305Z,11.90
2023-02-13T00:18:44.219Z,12.90
2023-02-13T00:21:13.780Z,11.70
2023-02-13T00:23:41.541Z,13.02
2023-02-13T00:26:14.068Z,12.70
2023-02-13T00:28:45.895Z,12.82
2023-02-13T00:31:19.083Z,12.63
2023-02-13T00:33:47.846Z,11.98
2023-02-13T00:36:22.074Z,12.85
2023-02-13T00:38:50.431Z,13.13
2023-02-13T00:41:18.283Z,13.35
2023-02-13T00:43:47.450Z,12.18
2023-02-13T00:46:17.243Z,12.38
2023-02-13T00:48:45.517Z,13.07
2023-02-13T00:51:13.408Z,12.57
2023-02-13T00:53:41.427Z,13.43
2023-02-13T00:56:09.767Z,14.13
2023-02-13T00:58:38.897Z,13.75
2023-02-13T01:01:06.833Z,12.43
2023-02-13T01:03:35.675Z,14.30
2023-02-13T01:06:03.746Z,13.88
2023-02-13T01:08:32.931Z,14.02
2023-02-13T01:11:01.064Z,13.68
2023-02-13T01:13:29.628Z,14.07
2023-02-13T01:15:57.558Z,13.98
2023-02-13T01:18:26.921Z,14.23
2023-02-13T01:21:08.320Z,14.82
2023-02-13T01:23:38.566Z,14.77
2023-02-13T01:26:10.803Z,14.98
2023-02-13T01:28:38.805Z,14.68
2023-02-13T01:31:06.697Z,15.63
2023-02-13T01:33:35.974Z,14.23
2023-02-13T01:36:14.129Z,15.00
2023-02-13T01:38:42.240Z,15.00
2023-02-13T01:41:10.351Z,14.95
2023-02-13T01:43:52.328Z,14.90
2023-02-13T01:46:29.572Z,14.88
2023-02-13T01:49:23.138Z,16.00
2023-02-13T01:51:55.908Z,15.43
2023-02-13T01:54:33.000Z,15.23
2023-02-13T01:57:08.951Z,15.85
2023-02-13T01:59:50.114Z,16.20
2023-02-13T02:02:19.028Z,15.18
2023-02-13T02:04:48.338Z,16.10
2023-02-13T02:07:26.480Z,16.00
2023-02-13T02:10:00.305Z,16.13
2023-02-13T02:12:32.254Z,15.73
2023-02-13T02:15:04.047Z,15.85
2023-02-13T02:17:33.793Z,15.68
2023-02-13T02:20:19.354Z,16.88
2023-02-13T02:23:03.453Z,16.15
2023-02-13T02:26:11.245Z,16.35
2023-02-13T02:29:23.297Z,16.27
2023-02-13T02:32:37.938Z,15.88
2023-02-13T02:35:27.779Z,15.13
2023-02-13T02:38:37.312Z,16.17
2023-02-13T02:41:42.217Z,15.77
2023-02-13T02:44:32.303Z,15.93
2023-02-13T02:47:52.937Z,16.48
2023-02-13T02:50:50.403Z,15.35
2023-02-13T02:54:03.470Z,15.20
2023-02-13T02:56:46.698Z,15.15
2023-02-13T02:59:55.224Z,16.13
2023-02-13T03:02:42.673Z,16.23
2023-02-13T03:05:49.142Z,16.35
2023-02-13T03:08:37.883Z,16.08
2023-02-13T03:11:25.423Z,15.05
2023-02-13T03:13:54.511Z,16.73
2023-02-13T03:16:44.199Z,16.15
2023-02-13T03:19:56.791Z,14.93
2023-02-13T03:22:52.623Z,16.10
2023-02-13T03:25:43.517Z,15.43
2023-02-13T03:28:49.077Z,15.45
2023-02-13T03:31:49.772Z,16.02
2023-02-13T03:34:23.608Z,15.25
2023-02-13T03:37:22.412Z,16.83
2023-02-13T03:40:08.168Z,15.38
2023-02-13T03:42:42.494Z,16.10
2023-02-13T03:45:51.463Z,16.42
2023-02-13T03:48:54.516Z,17.05
2023-02-13T03:51:40.731Z,16.45
2023-02-13T03:54:42.531Z,16.42
2023-02-13T03:57:33.850Z,16.83
2023-02-13T04:00:06.493Z,16.13
2023-02-13T04:02:54.585Z,16.45
2023-02-13T04:07:53.884Z,15.27
2023-02-13T04:10:24.647Z,16.83
2023-02-13T04:13:14.440Z,12.97
2023-02-13T04:15:55.563Z,16.73
2023-02-13T04:18:31.044Z,16.17
2023-02-13T04:21:06.754Z,16.10
2023-02-13T04:23:36.839Z,16.05
2023-02-13T04:26:11.965Z,16.55
2023-02-13T04:28:39.806Z,16.67
2023-02-13T04:31:07.786Z,16.73
2023-02-13T04:33:35.681Z,17.85
2023-02-13T04:36:03.856Z,17.90
2023-02-13T04:38:31.754Z,16.40
2023-02-13T04:40:59.851Z,16.85
2023-02-13T04:43:27.945Z,16.80
2023-02-13T04:45:55.967Z,16.65
2023-02-13T04:48:23.879Z,16.50
2023-02-13T04:50:51.705Z,16.17
2023-02-13T04:53:19.597Z,15.85
2023-02-13T04:55:47.378Z,15.40
2023-02-13T04:58:15.164Z,15.90
2023-02-13T05:00:43.178Z,15.18
2023-02-13T05:03:13.614Z,16.35
2023-02-13T05:05:41.524Z,15.65
2023-02-13T05:08:09.751Z,14.75
2023-02-13T05:10:37.977Z,15.10
2023-02-13T05:13:05.913Z,15.50
2023-02-13T05:15:33.889Z,15.48
2023-02-13T05:18:01.873Z,14.43
2023-02-13T05:20:29.716Z,14.55
2023-02-13T05:23:16.615Z,14.98
2023-02-13T05:25:44.441Z,14.48
2023-02-13T05:28:31.297Z,15.07
2023-02-13T05:30:59.803Z,13.82
2023-02-13T05:33:27.817Z,14.07
2023-02-13T05:35:55.507Z,13.57
2023-02-13T05:38:23.440Z,14.88
2023-02-13T05:40:51.383Z,14.65
2023-02-13T05:43:20.405Z,13.60
2023-02-13T05:45:48.408Z,13.98
2023-02-13T05:48:16.180Z,14.98
2023-02-13T05:50:46.138Z,14.60
2023-02-13T05:53:14.035Z,12.95
2023-02-13T05:55:41.833Z,13.88
2023-02-13T05:58:09.608Z,14.20
2023-02-13T06:00:37.272Z,13.20
2023-02-13T06:03:05.036Z,13.77
2023-02-13T06:05:32.865Z,14.43
2023-02-13T06:08:00.819Z,14.75
2023-02-13T06:10:28.526Z,13.45
2023-02-13T06:12:56.286Z,13.90
2023-02-13T06:15:24.068Z,13.60
2023-02-13T06:17:51.938Z,14.25
2023-02-13T06:20:19.973Z,13.27
2023-02-13T06:22:52.222Z,13.30
2023-02-13T06:25:20.845Z,13.82
2023-02-13T06:27:50.281Z,13.80
2023-02-13T06:30:18.804Z,13.73
2023-02-13T06:32:48.116Z,14.07
2023-02-13T06:35:16.804Z,13.70
2023-02-13T06:37:45.466Z,14.13
2023-02-13T06:40:14.924Z,13.43
2023-02-13T06:42:44.052Z,13.25
2023-02-13T06:45:13.208Z,13.07
2023-02-13T06:47:43.653Z,12.73
2023-02-13T06:50:14.397Z,13.00
2023-02-13T06:52:52.629Z,10.02
2023-02-13T06:55:20.968Z,11.98
2023-02-13T06:57:50.443Z,13.23
2023-02-13T07:00:19.443Z,12.75
2023-02-13T07:02:47.879Z,12.15
2023-02-13T07:05:16.002Z,13.00
2023-02-13T07:07:44.097Z,12.75
2023-02-13T07:10:14.966Z,12.80
2023-02-13T07:12:45.673Z,12.63
2023-02-13T07:15:15.207Z,12.23
2023-02-13T07:17:43.044Z,12.55
2023-02-13T07:20:11.382Z,11.40
2023-02-13T07:22:39.162Z,11.57
2023-02-13T07:25:07.381Z,12.45
2023-02-13T07:27:35.131Z,11.52
2023-02-13T07:30:03.651Z,12.38
2023-02-13T07:32:31.907Z,12.15
2023-02-13T07:35:02.436Z,12.07
2023-02-13T07:37:33.486Z,8.38
2023-02-13T07:40:01.381Z,12.30
2023-02-13T07:42:35.501Z,11.63
2023-02-13T07:45:08.388Z,12.00
2023-02-13T07:47:36.135Z,11.80
2023-02-13T07:50:06.109Z,11.95
2023-02-13T07:52:36.167Z,10.77
2023-02-13T07:55:06.443Z,11.93
2023-02-13T07:57:34.567Z,11.35
2023-02-13T08:00:06.198Z,11.57
2023-02-13T08:02:39.713Z,11.63
2023-02-13T08:05:11.167Z,12.30
2023-02-13T08:07:39.043Z,12.30
2023-02-13T08:10:27.477Z,11.60
2023-02-13T08:12:55.538Z,11.75
2023-02-13T08:15:23.937Z,12.45
2023-02-13T08:17:53.848Z,11.52
2023-02-13T08:20:21.941Z,11.02
2023-02-13T08:22:52.397Z,11.35
2023-02-13T08:25:20.285Z,11.57
2023-02-13T08:27:48.337Z,11.32
2023-02-13T08:30:16.539Z,10.60
2023-02-13T08:32:53.865Z,11.00
2023-02-13T08:35:26.710Z,10.65
2023-02-13T08:37:55.862Z,10.15
2023-02-13T08:40:25.462Z,11.75
2023-02-13T08:43:01.470Z,11.82
2023-02-13T08:45:29.582Z,11.27
2023-02-13T08:47:59.023Z,12.80
2023-02-13T08:50:28.171Z,11.77
2023-02-13T08:53:16.176Z,11.25
2023-02-13T08:55:51.173Z,10.82
2023-02-13T08:58:19.026Z,12.20
2023-02-13T09:00:47.161Z,11.95
2023-02-13T09:03:15.842Z,11.57
2023-02-13T09:05:45.362Z,12.15
2023-02-13T09:08:13.817Z,11.65
2023-02-13T09:10:45.902Z,11.52
2023-02-13T09:13:13.623Z,11.77
2023-02-13T09:15:43.026Z,10.88
2023-02-13T09:18:11.008Z,11.35
2023-02-13T09:20:38.862Z,11.65
2023-02-13T09:23:06.503Z,11.90
2023-02-13T09:25:34.272Z,12.02
2023-02-13T09:28:02.213Z,11.57
2023-02-13T09:30:30.351Z,13.07
2023-02-13T09:32:58.170Z,11.52
2023-02-13T09:35:26.004Z,11.63
2023-02-13T09:37:53.691Z,10.70
2023-02-13T09:40:37.502Z,11.30
2023-02-13T09:43:29.505Z,11.50
2023-02-13T09:46:14.694Z,11.15
2023-02-13T09:48:46.267Z,11.00
2023-02-13T09:54:01.772Z,11.20
2023-02-13T09:56:41.843Z,10.50
2023-02-13T09:59:44.517Z,10.43
2023-02-13T10:02:56.146Z,10.38
2023-02-13T10:05:58.624Z,11.02
2023-02-13T10:08:49.498Z,10.20
2023-02-13T10:11:54.022Z,8.38
2023-02-13T10:14:52.301Z,11.32
2023-02-13T10:17:45.199Z,11.63
2023-02-13T10:20:24.906Z,12.57
2023-02-13T10:23:32.678Z,12.40
2023-02-13T10:26:20.214Z,13.40
2023-02-13T10:29:21.784Z,12.82
2023-02-13T10:31:52.505Z,12.68
2023-02-13T10:34:25.297Z,12.95
2023-02-13T10:36:53.357Z,12.13
2023-02-13T10:39:30.336Z,12.57
2023-02-13T10:42:44.921Z,11.95
2023-02-13T10:45:46.900Z,11.73
2023-02-13T10:48:34.425Z,11.55
2023-02-13T10:51:35.932Z,10.45
2023-02-13T10:54:32.495Z,11.52
2023-02-13T10:57:14.451Z,10.95
2023-02-13T11:00:03.459Z,11.25
2023-02-13T11:02:34.684Z,11.35
2023-02-13T11:05:18.145Z,10.80
2023-02-13T11:07:47.586Z,10.45
2023-02-13T11:10:20.657Z,10.43
2023-02-13T11:12:50.174Z,10.48
2023-02-13T11:15:28.822Z,10.30
2023-02-13T11:18:03.462Z,10.38
2023-02-13T11:20:44.467Z,11.88
2023-02-13T11:23:30.697Z,11.57
2023-02-13T11:26:10.933Z,10.20
2023-02-13T11:28:56.830Z,10.30
2023-02-13T11:31:37.813Z,11.75
2023-02-13T11:34:27.278Z,10.52
2023-02-13T11:37:22.402Z,10.55
2023-02-13T11:39:54.934Z,11.02
2023-02-13T11:42:37.234Z,10.73
2023-02-13T11:45:23.812Z,10.70
2023-02-13T11:47:54.206Z,11.30
2023-02-13T11:50:35.728Z,10.95
2023-02-13T11:56:15.296Z,10.50
2023-02-13T11:58:43.603Z,10.10
2023-02-13T12:01:20.280Z,10.63
2023-02-13T12:04:16.179Z,11.50
2023-02-13T12:07:00.959Z,10.23
2023-02-13T12:09:30.633Z,10.60
2023-02-13T12:12:04.179Z,10.98
2023-02-13T12:14:45.090Z,11.00
2023-02-13T12:17:31.797Z,10.48
2023-02-13T12:20:01.382Z,10.60
2023-02-13T12:22:38.635Z,11.38
2023-02-13T12:25:33.890Z,10.88
2023-02-13T12:28:33.202Z,10.57
2023-02-13T12:31:20.204Z,10.10
2023-02-13T12:34:57.393Z,10.52
2023-02-13T12:37:55.367Z,11.13
2023-02-13T12:40:47.917Z,10.77
2023-02-13T12:43:46.533Z,9.90
2023-02-13T12:46:41.303Z,11.35
2023-02-13T12:49:46.581Z,10.90
2023-02-13T12:52:33.995Z,10.30
2023-02-13T12:55:13.523Z,10.73
2023-02-13T12:58:17.366Z,10.38
2023-02-13T13:01:30.240Z,10.43
2023-02-13T13:04:40.379Z,10.50
2023-02-13T13:07:25.966Z,10.48
2023-02-13T13:10:25.361Z,10.30
2023-02-13T13:13:27.836Z,9.57
2023-02-13T13:16:32.724Z,10.02
2023-02-13T13:19:12.500Z,9.60
2023-02-13T13:21:46.380Z,8.68
2023-02-13T13:24:49.280Z,9.02
2023-02-13T13:27:37.844Z,8.95
2023-02-13T13:30:16.083Z,9.32
2023-02-13T13:32:45.961Z,8.90
2023-02-13T13:35:19.972Z,8.55
2023-02-13T13:38:18.343Z,8.68
2023-02-13T13:41:00.317Z,8.90
2023-02-13T13:43:40.669Z,8.70
2023-02-13T13:46:45.884Z,9.18
2023-02-13T13:49:53.582Z,8.98
2023-02-13T13:52:32.948Z,8.57
2023-02-13T13:55:03.089Z,9.30
2023-02-13T13:57:40.267Z,9.07
2023-02-13T14:00:14.032Z,9.15
2023-02-13T14:02:45.222Z,9.52
2023-02-13T14:05:27.446Z,9.00
2023-02-13T14:07:58.764Z,9.48
2023-02-13T14:10:26.736Z,10.13
2023-02-13T14:12:58.395Z,9.07
2023-02-13T14:15:38.332Z,9.50
2023-02-13T14:18:14.583Z,8.75
2023-02-13T14:20:50.432Z,9.68
2023-02-13T14:23:50.556Z,9.18
2023-02-13T14:26:18.359Z,9.77
2023-02-13T14:28:49.178Z,9.20
2023-02-13T14:31:39.237Z,9.85
2023-02-13T14:34:16.966Z,9.13
2023-02-13T14:37:07.172Z,9.70
2023-02-13T14:39:35.934Z,8.70
2023-02-13T14:42:23.288Z,9.50
2023-02-13T14:44:56.413Z,9.38
2023-02-13T14:47:42.628Z,9.43
2023-02-13T14:50:30.594Z,8.93
2023-02-13T14:53:02.851Z,8.77
2023-02-13T14:55:48.212Z,9.20
2023-02-13T14:58:43.210Z,9.43
2023-02-13T15:01:35.739Z,9.05
2023-02-13T15:04:28.165Z,8.80
2023-02-13T15:07:00.193Z,9.25
2023-02-13T15:09:41.326Z,9.27
2023-02-13T15:12:36.259Z,8.73
2023-02-13T15:15:32.471Z,9.40
2023-02-13T15:18:13.444Z,8.85
2023-02-13T15:20:43.125Z,8.90
2023-02-13T15:23:26.679Z,8.98
2023-02-13T15:26:04.447Z,9.32
2023-02-13T15:28:34.274Z,8.73
2023-02-13T15:31:21.699Z,8.70
2023-02-13T15:33:51.435Z,8.10
2023-02-13T15:36:25.365Z,9.38
2023-02-13T15:39:01.003Z,11.70
2023-02-13T15:41:45.244Z,10.90
2023-02-13T15:44:36.981Z,9.95
2023-02-13T15:47:17.382Z,8.90
2023-02-13T15:49:48.763Z,10.43
2023-02-13T15:55:06.517Z,9.13
2023-02-13T15:57:35.441Z,9.55
2023-02-13T16:00:04.254Z,8.95
2023-02-13T16:02:47.838Z,9.15
2023-02-13T16:05:26.488Z,8.77
2023-02-13T16:08:31.016Z,8.55
2023-02-13T16:11:27.034Z,8.70
2023-02-13T16:14:21.229Z,8.77
2023-02-13T16:17:03.097Z,8.65
2023-02-13T16:19:41.895Z,9.37
2023-02-13T16:22:24.629Z,10.10
2023-02-13T16:24:58.185Z,9.18
2023-02-13T16:27:28.287Z,9.38
2023-02-13T16:30:07.790Z,9.57
2023-02-13T16:32:41.393Z,10.23
2023-02-13T16:35:28.969Z,9.35
2023-02-13T16:38:01.725Z,9.93
2023-02-13T16:40:43.058Z,9.55
2023-02-13T16:43:35.581Z,9.15
2023-02-13T16:46:14.985Z,9.38
2023-02-13T16:48:56.481Z,9.68
2023-02-13T16:51:30.379Z,10.00
2023-02-13T16:54:28.492Z,10.32
2023-02-13T16:57:14.739Z,10.93
2023-02-13T16:59:48.647Z,10.05
2023-02-13T17:02:23.860Z,10.52
2023-02-13T17:05:08.386Z,9.90
2023-02-13T17:07:48.501Z,9.68
2023-02-13T17:10:31.064Z,10.23
2023-02-13T17:13:02.995Z,10.52
2023-02-13T17:15:32.693Z,9.90
2023-02-13T17:18:00.751Z,10.30
2023-02-13T17:20:32.400Z,10.25
2023-02-13T17:23:04.356Z,10.60
2023-02-13T17:25:36.052Z,11.05
2023-02-13T17:28:18.847Z,11.35
2023-02-13T17:30:48.498Z,10.75
2023-02-13T17:33:35.443Z,10.30
2023-02-13T17:36:03.359Z,10.93
2023-02-13T17:38:31.271Z,10.73
2023-02-13T17:41:00.595Z,11.43
2023-02-13T17:43:29.957Z,18.88
2023-02-13T17:46:01.221Z,19.38
2023-02-13T17:48:29.402Z,17.70
2023-02-13T17:50:57.674Z,14.80
2023-02-13T17:53:29.975Z,14.65
2023-02-13T17:55:58.298Z,13.63
2023-02-13T17:58:29.398Z,12.55
2023-02-13T18:00:57.906Z,11.63
2023-02-13T18:03:25.927Z,12.25
2023-02-13T18:05:53.628Z,13.52
2023-02-13T18:08:21.388Z,13.10
2023-02-13T18:10:49.478Z,13.23
2023-02-13T18:13:17.534Z,13.38
2023-02-13T18:15:45.494Z,13.48
2023-02-13T18:18:16.235Z,13.60
2023-02-13T18:20:45.053Z,14.35
2023-02-13T18:23:13.901Z,13.80
2023-02-13T18:25:41.787Z,14.48
2023-02-13T18:28:09.564Z,13.93
2023-02-13T18:30:42.988Z,9.97
2023-02-13T18:33:11.062Z,11.27
2023-02-13T18:35:40.978Z,15.13
2023-02-13T18:38:08.769Z,14.50
2023-02-13T18:40:36.761Z,14.98
2023-02-13T18:43:04.676Z,15.52
2023-02-13T18:45:32.560Z,18.55
2023-02-13T18:48:02.356Z,23.70
2023-02-13T18:50:30.098Z,27.48
2023-02-13T18:52:58.003Z,28.77
2023-02-13T18:55:28.409Z,24.80
2023-02-13T18:57:56.413Z,23.75
2023-02-13T19:00:26.866Z,22.00
2023-02-13T19:02:55.530Z,20.50
2023-02-13T19:05:23.537Z,16.60
2023-02-13T19:07:54.157Z,11.37
2023-02-13T19:10:25.190Z,15.05
2023-02-13T19:12:53.343Z,10.02
2023-02-13T19:15:21.338Z,11.13
2023-02-13T19:17:49.180Z,10.30
2023-02-13T19:20:17.178Z,10.13
2023-02-13T19:22:45.023Z,10.13
2023-02-13T19:25:12.937Z,10.27
2023-02-13T19:27:40.712Z,10.50
2023-02-13T19:30:10.581Z,10.40
2023-02-13T19:32:38.486Z,10.23
2023-02-13T19:35:08.901Z,9.82
2023-02-13T19:37:43.750Z,10.15
2023-02-13T19:40:14.015Z,9.93
2023-02-13T19:42:42.329Z,9.88
2023-02-13T19:45:10.657Z,9.57
2023-02-13T19:47:38.399Z,9.93
2023-02-13T19:50:07.460Z,10.27
2023-02-13T19:52:35.400Z,9.68
2023-02-13T19:55:03.434Z,11.30
2023-02-13T19:57:33.753Z,12.38
2023-02-13T20:00:06.032Z,9.15
2023-02-13T20:02:39.742Z,13.60
2023-02-13T20:05:08.828Z,13.20
2023-02-13T20:07:36.564Z,12.63
2023-02-13T20:10:06.437Z,12.80
2023-02-13T20:12:34.154Z,11.88
2023-02-13T20:15:02.598Z,12.75
2023-02-13T20:17:30.435Z,12.05
2023-02-13T20:19:58.953Z,12.50
2023-02-13T20:22:26.712Z,15.32
2023-02-13T20:24:54.420Z,17.95
2023-02-13T20:27:22.276Z,29.63
2023-02-13T20:29:51.389Z,23.52
2023-02-13T20:32:19.435Z,21.33
2023-02-13T20:34:59.462Z,20.95
2023-02-13T20:37:27.906Z,16.90
2023-02-13T20:39:55.795Z,15.38
2023-02-13T20:42:24.275Z,14.13
2023-02-13T20:44:52.235Z,14.60
2023-02-13T20:47:20.243Z,14.80
2023-02-13T20:49:48.382Z,16.30
2023-02-13T20:52:16.281Z,15.68
2023-02-13T20:54:44.108Z,15.77
2023-02-13T20:57:15.703Z,14.93
2023-02-13T21:02:13.158Z,12.27
2023-02-13T21:04:41.033Z,12.68
2023-02-13T21:07:09.367Z,13.30
2023-02-13T21:09:37.820Z,12.90
2023-02-13T21:12:05.947Z,13.13
2023-02-13T21:14:33.921Z,12.60
2023-02-13T21:17:01.961Z,12.57
2023-02-13T21:19:31.334Z,11.55
2023-02-13T21:22:11.926Z,11.70
2023-02-13T21:24:42.318Z,11.95
2023-02-13T21:27:11.100Z,8.27
2023-02-13T21:29:39.052Z,11.48
2023-02-13T21:32:07.023Z,12.05
2023-02-13T21:34:35.213Z,11.52
2023-02-13T21:37:03.340Z,12.30
2023-02-13T21:39:31.225Z,11.13
2023-02-13T21:41:59.063Z,11.85
2023-02-13T21:44:27.081Z,12.35
2023-02-13T21:46:54.951Z,11.80
2023-02-13T21:49:25.005Z,12.27
2023-02-13T21:51:52.989Z,11.73
2023-02-13T21:54:20.791Z,11.38
2023-02-13T21:56:48.719Z,11.70
2023-02-13T21:59:17.701Z,11.77
2023-02-13T22:01:50.212Z,11.30
2023-02-13T22:04:18.706Z,13.23
2023-02-13T22:06:52.640Z,12.75
2023-02-13T22:09:21.873Z,11.13
2023-02-13T22:11:51.796Z,12.18
2023-02-13T22:14:19.882Z,11.32
2023-02-13T22:16:51.646Z,11.70
2023-02-13T22:19:21.202Z,11.82
2023-02-13T22:21:49.475Z,12.30
2023-02-13T22:24:17.347Z,12.07
2023-02-13T22:26:45.406Z,11.57
2023-02-13T22:29:17.722Z,12.15
2023-02-13T22:31:46.630Z,11.07
2023-02-13T22:34:15.570Z,11.30
2023-02-13T22:36:43.346Z,10.90
2023-02-13T22:39:12.078Z,11.73
2023-02-13T22:41:40.988Z,11.48
2023-02-13T22:44:08.844Z,11.60
2023-02-13T22:46:36.642Z,11.15
2023-02-13T22:49:04.605Z,11.10
2023-02-13T22:51:35.370Z,11.63
2023-02-13T22:54:04.453Z,8.80
2023-02-13T22:56:32.882Z,11.90
2023-02-13T22:59:01.074Z,11.43
2023-02-13T23:01:29.651Z,12.05
2023-02-13T23:04:00.967Z,11.57
2023-02-13T23:06:29.067Z,12.07
2023-02-13T23:08:57.506Z,11.23
2023-02-13T23:11:46.344Z,11.35
2023-02-13T23:14:15.076Z,10.98
2023-02-13T23:17:01.634Z,11.07
2023-02-13T23:19:30.532Z,11.07
2023-02-13T23:22:00.368Z,11.18
2023-02-13T23:24:29.941Z,11.35
2023-02-13T23:26:59.591Z,12.10
2023-02-13T23:29:27.583Z,11.50
2023-02-13T23:31:56.065Z,11.75
2023-02-13T23:34:24.290Z,12.55
2023-02-13T23:36:51.998Z,12.32
2023-02-13T23:39:20.374Z,12.13
2023-02-13T23:41:48.140Z,12.50
2023-02-13T23:44:15.807Z,13.25
2023-02-13T23:46:43.583Z,14.40
2023-02-13T23:49:11.446Z,14.80
2023-02-13T23:51:39.210Z,14.40
2023-02-13T23:54:07.190Z,14.35
2023-02-13T23:56:35.127Z,14.30
2023-02-13T23:59:02.969Z,13.63
